sensor_id;sensor_type;location;lat;lon;timestamp;pressure;altitude;pressure_sealevel;temperature;humidity
8894;BME280;4483;48.622;9.230;2023-08-08T00:00:13;98050.78;;;12.23;100.00
8894;BME280;4483;48.622;9.230;2023-08-08T00:02:39;98052.59;;;12.21;100.00
8894;BME280;4483;48.622;9.230;2023-08-08T00:05:07;98058.56;;;12.22;100.00
8894;BME280;4483;48.622;9.230;2023-08-08T00:07:35;98058.66;;;12.20;100.00
8894;BME280;4483;48.622;9.230;2023-08-08T00:10:02;98051.81;;;12.19;100.00
8894;BME280;4483;48.622;9.230;2023-08-08T00:12:29;98057.88;;;12.18;100.00
8894;BME280;4483;48.622;9.230;2023-08-08T00:14:56;98062.16;;;12.19;100.00
8894;BME280;4483;48.622;9.230;2023-08-08T00:17:23;98069.97;;;12.18;100.00
8894;BME280;4483;48.622;9.230;2023-08-08T00:19:50;98064.72;;;12.19;100.00
8894;BME280;4483;48.622;9.230;2023-08-08T00:22:17;98062.22;;;12.18;100.00
8894;BME280;4483;48.622;9.230;2023-08-08T00:24:45;98057.06;;;12.18;100.00
8894;BME280;4483;48.622;9.230;2023-08-08T00:27:12;98067.44;;;12.16;100.00
8894;BME280;4483;48.622;9.230;2023-08-08T00:29:38;98063.03;;;12.18;100.00
8894;BME280;4483;48.622;9.230;2023-08-08T00:32:05;98060.34;;;12.21;100.00
8894;BME280;4483;48.622;9.230;2023-08-08T00:34:33;98067.09;;;12.24;100.00
8894;BME280;4483;48.622;9.230;2023-08-08T00:36:59;98061.81;;;12.27;100.00
8894;BME280;4483;48.622;9.230;2023-08-08T00:39:26;98059.03;;;12.31;100.00
8894;BME280;4483;48.622;9.230;2023-08-08T00:41:54;98063.22;;;12.34;100.00
8894;BME280;4483;48.622;9.230;2023-08-08T00:44:21;98066.59;;;12.36;100.00
8894;BME280;4483;48.622;9.230;2023-08-08T00:46:51;98052.66;;;12.38;100.00
8894;BME280;4483;48.622;9.230;2023-08-08T00:49:23;98052.56;;;12.41;100.00
8894;BME280;4483;48.622;9.230;2023-08-08T00:51:51;98055.91;;;12.43;100.00
8894;BME280;4483;48.622;9.230;2023-08-08T00:54:18;98051.44;;;12.47;100.00
8894;BME280;4483;48.622;9.230;2023-08-08T00:56:46;98049.69;;;12.47;100.00
8894;BME280;4483;48.622;9.230;2023-08-08T00:59:15;98051.44;;;12.47;100.00
8894;BME280;4483;48.622;9.230;2023-08-08T01:01:45;98058.41;;;12.45;100.00
8894;BME280;4483;48.622;9.230;2023-08-08T01:04:12;98043.97;;;12.41;100.00
8894;BME280;4483;48.622;9.230;2023-08-08T01:06:43;98042.16;;;12.43;100.00
8894;BME280;4483;48.622;9.230;2023-08-08T01:09:23;98037.94;;;12.40;100.00
8894;BME280;4483;48.622;9.230;2023-08-08T01:11:52;98037.88;;;12.42;100.00
8894;BME280;4483;48.622;9.230;2023-08-08T01:14:21;98043.03;;;12.42;100.00
8894;BME280;4483;48.622;9.230;2023-08-08T01:16:50;98042.22;;;12.41;100.00
8894;BME280;4483;48.622;9.230;2023-08-08T01:19:26;98040.44;;;12.42;100.00
8894;BME280;4483;48.622;9.230;2023-08-08T01:21:54;98034.53;;;12.40;100.00
8894;BME280;4483;48.622;9.230;2023-08-08T01:24:25;98037.16;;;12.38;100.00
8894;BME280;4483;48.622;9.230;2023-08-08T01:26:55;98034.59;;;12.38;100.00
8894;BME280;4483;48.622;9.230;2023-08-08T01:29:22;98042.22;;;12.41;100.00
8894;BME280;4483;48.622;9.230;2023-08-08T01:31:49;98036.13;;;12.42;100.00
8894;BME280;4483;48.622;9.230;2023-08-08T01:34:16;98030.25;;;12.39;100.00
8894;BME280;4483;48.622;9.230;2023-08-08T01:36:48;98029.41;;;12.38;100.00
8894;BME280;4483;48.622;9.230;2023-08-08T01:39:17;98026.84;;;12.38;100.00
8894;BME280;4483;48.622;9.230;2023-08-08T01:41:48;98025.94;;;12.39;100.00
8894;BME280;4483;48.622;9.230;2023-08-08T01:44:16;98024.13;;;12.41;100.00
8894;BME280;4483;48.622;9.230;2023-08-08T01:46:45;98022.31;;;12.43;100.00
8894;BME280;4483;48.622;9.230;2023-08-08T01:49:13;98019.66;;;12.45;100.00
8894;BME280;4483;48.622;9.230;2023-08-08T01:51:41;98018.97;;;12.41;100.00
8894;BME280;4483;48.622;9.230;2023-08-08T01:54:09;98022.16;;;12.46;100.00
8894;BME280;4483;48.622;9.230;2023-08-08T01:56:36;98011.84;;;12.46;100.00
8894;BME280;4483;48.622;9.230;2023-08-08T01:59:04;98015.25;;;12.47;100.00
8894;BME280;4483;48.622;9.230;2023-08-08T02:01:31;98011.97;;;12.43;100.00
8894;BME280;4483;48.622;9.230;2023-08-08T02:04:00;98009.41;;;12.43;100.00
8894;BME280;4483;48.622;9.230;2023-08-08T02:06:36;98011.13;;;12.43;100.00
8894;BME280;4483;48.622;9.230;2023-08-08T02:09:03;98017.97;;;12.44;100.00
8894;BME280;4483;48.622;9.230;2023-08-08T02:11:30;98013.50;;;12.47;100.00
8894;BME280;4483;48.622;9.230;2023-08-08T02:13:56;98007.38;;;12.50;100.00
8894;BME280;4483;48.622;9.230;2023-08-08T02:16:24;98008.91;;;12.54;100.00
8894;BME280;4483;48.622;9.230;2023-08-08T02:18:51;98003.66;;;12.55;100.00
8894;BME280;4483;48.622;9.230;2023-08-08T02:21:18;98004.50;;;12.56;100.00
8894;BME280;4483;48.622;9.230;2023-08-08T02:23:45;98000.09;;;12.58;100.00
8894;BME280;4483;48.622;9.230;2023-08-08T02:26:12;98001.69;;;12.60;100.00
8894;BME280;4483;48.622;9.230;2023-08-08T02:28:39;97997.44;;;12.59;100.00
8894;BME280;4483;48.622;9.230;2023-08-08T02:31:06;98008.56;;;12.61;100.00
8894;BME280;4483;48.622;9.230;2023-08-08T02:33:34;98010.28;;;12.61;100.00
8894;BME280;4483;48.622;9.230;2023-08-08T02:36:01;98003.66;;;12.55;100.00
8894;BME280;4483;48.622;9.230;2023-08-08T02:38:27;98005.19;;;12.59;100.00
8894;BME280;4483;48.622;9.230;2023-08-08T02:40:54;98004.28;;;12.60;100.00
8894;BME280;4483;48.622;9.230;2023-08-08T02:43:20;98009.38;;;12.62;100.00
8894;BME280;4483;48.622;9.230;2023-08-08T02:45:47;98001.78;;;12.59;100.00
8894;BME280;4483;48.622;9.230;2023-08-08T02:48:14;98009.59;;;12.57;100.00
8894;BME280;4483;48.622;9.230;2023-08-08T02:50:42;98007.09;;;12.56;100.00
8894;BME280;4483;48.622;9.230;2023-08-08T02:53:08;98010.56;;;12.55;100.00
8894;BME280;4483;48.622;9.230;2023-08-08T02:55:36;98006.31;;;12.54;100.00
8894;BME280;4483;48.622;9.230;2023-08-08T02:58:03;98011.41;;;12.55;100.00
8894;BME280;4483;48.622;9.230;2023-08-08T03:00:30;98003.59;;;12.57;100.00
8894;BME280;4483;48.622;9.230;2023-08-08T03:02:56;98001.84;;;12.57;100.00
8894;BME280;4483;48.622;9.230;2023-08-08T03:05:23;98002.75;;;12.56;100.00
8894;BME280;4483;48.622;9.230;2023-08-08T03:07:51;97999.25;;;12.57;100.00
8894;BME280;4483;48.622;9.230;2023-08-08T03:10:18;98004.50;;;12.56;100.00
8894;BME280;4483;48.622;9.230;2023-08-08T03:12:44;97997.56;;;12.56;100.00
8894;BME280;4483;48.622;9.230;2023-08-08T03:15:11;98002.75;;;12.56;100.00
8894;BME280;4483;48.622;9.230;2023-08-08T03:17:38;98002.75;;;12.56;100.00
8894;BME280;4483;48.622;9.230;2023-08-08T03:20:05;98006.25;;;12.55;100.00
8894;BME280;4483;48.622;9.230;2023-08-08T03:22:32;98002.00;;;12.54;100.00
8894;BME280;4483;48.622;9.230;2023-08-08T03:25:00;98002.88;;;12.53;100.00
8894;BME280;4483;48.622;9.230;2023-08-08T03:27:29;97995.28;;;12.50;100.00
8894;BME280;4483;48.622;9.230;2023-08-08T03:29:56;97992.09;;;12.45;100.00
8894;BME280;4483;48.622;9.230;2023-08-08T03:32:23;97996.34;;;12.46;100.00
8894;BME280;4483;48.622;9.230;2023-08-08T03:34:49;97997.38;;;12.42;100.00
8894;BME280;4483;48.622;9.230;2023-08-08T03:37:16;98002.53;;;12.42;100.00
8894;BME280;4483;48.622;9.230;2023-08-08T03:39:43;98000.88;;;12.41;100.00
8894;BME280;4483;48.622;9.230;2023-08-08T03:42:11;97998.28;;;12.41;100.00
8894;BME280;4483;48.622;9.230;2023-08-08T03:44:38;97993.94;;;12.42;100.00
8894;BME280;4483;48.622;9.230;2023-08-08T03:47:05;98005.00;;;12.45;100.00
8894;BME280;4483;48.622;9.230;2023-08-08T03:49:32;97996.53;;;12.42;100.00
8894;BME280;4483;48.622;9.230;2023-08-08T03:51:58;97998.28;;;12.41;100.00
8894;BME280;4483;48.622;9.230;2023-08-08T03:54:25;98002.53;;;12.42;100.00
8894;BME280;4483;48.622;9.230;2023-08-08T03:56:52;98003.38;;;12.43;100.00
8894;BME280;4483;48.622;9.230;2023-08-08T03:59:20;97999.09;;;12.42;100.00
8894;BME280;4483;48.622;9.230;2023-08-08T04:01:46;98006.03;;;12.41;100.00
8894;BME280;4483;48.622;9.230;2023-08-08T04:04:14;98004.34;;;12.40;100.00
8894;BME280;4483;48.622;9.230;2023-08-08T04:06:41;98007.09;;;12.37;100.00
8894;BME280;4483;48.622;9.230;2023-08-08T04:09:08;98002.06;;;12.34;100.00
8894;BME280;4483;48.622;9.230;2023-08-08T04:11:34;98005.53;;;12.33;100.00
8894;BME280;4483;48.622;9.230;2023-08-08T04:14:01;98003.72;;;12.35;100.00
8894;BME280;4483;48.622;9.230;2023-08-08T04:16:30;98004.44;;;12.39;100.00
8894;BME280;4483;48.622;9.230;2023-08-08T04:18:56;98001.69;;;12.42;100.00
8894;BME280;4483;48.622;9.230;2023-08-08T04:21:24;98001.50;;;12.46;100.00
8894;BME280;4483;48.622;9.230;2023-08-08T04:23:52;98004.09;;;12.46;100.00
8894;BME280;4483;48.622;9.230;2023-08-08T04:26:19;98008.31;;;12.47;100.00
8894;BME280;4483;48.622;9.230;2023-08-08T04:28:46;98007.44;;;12.48;100.00
8894;BME280;4483;48.622;9.230;2023-08-08T04:31:12;98006.50;;;12.49;100.00
8894;BME280;4483;48.622;9.230;2023-08-08T04:33:41;98010.78;;;12.50;100.00
8894;BME280;4483;48.622;9.230;2023-08-08T04:36:07;98010.44;;;12.58;100.00
8894;BME280;4483;48.622;9.230;2023-08-08T04:38:34;98015.47;;;12.61;100.00
8894;BME280;4483;48.622;9.230;2023-08-08T04:41:01;98007.50;;;12.65;100.00
8894;BME280;4483;48.622;9.230;2023-08-08T04:43:27;98008.97;;;12.71;100.00
8894;BME280;4483;48.622;9.230;2023-08-08T04:45:54;98004.63;;;12.71;100.00
8894;BME280;4483;48.622;9.230;2023-08-08T04:48:21;98014.06;;;12.72;100.00
8894;BME280;4483;48.622;9.230;2023-08-08T04:50:49;98014.00;;;12.74;100.00
8894;BME280;4483;48.622;9.230;2023-08-08T04:53:16;98012.09;;;12.77;100.00
8894;BME280;4483;48.622;9.230;2023-08-08T04:55:43;98014.63;;;12.79;100.00
8894;BME280;4483;48.622;9.230;2023-08-08T04:58:09;98017.00;;;12.83;100.00
8894;BME280;4483;48.622;9.230;2023-08-08T05:00:36;98023.56;;;12.90;100.00
8894;BME280;4483;48.622;9.230;2023-08-08T05:03:03;98022.50;;;12.94;100.00
8894;BME280;4483;48.622;9.230;2023-08-08T05:05:29;98021.38;;;13.00;100.00
8894;BME280;4483;48.622;9.230;2023-08-08T05:07:57;98025.38;;;13.07;100.00
8894;BME280;4483;48.622;9.230;2023-08-08T05:10:24;98031.09;;;13.13;100.00
8894;BME280;4483;48.622;9.230;2023-08-08T05:12:51;98024.78;;;13.19;100.00
8894;BME280;4483;48.622;9.230;2023-08-08T05:15:18;98019.25;;;13.27;100.00
8894;BME280;4483;48.622;9.230;2023-08-08T05:17:44;98023.59;;;13.43;100.00
8894;BME280;4483;48.622;9.230;2023-08-08T05:20:11;98014.16;;;13.59;100.00
8894;BME280;4483;48.622;9.230;2023-08-08T05:22:39;98014.06;;;13.78;100.00
8894;BME280;4483;48.622;9.230;2023-08-08T05:25:07;98005.22;;;13.99;100.00
8894;BME280;4483;48.622;9.230;2023-08-08T05:27:34;98009.94;;;14.08;100.00
8894;BME280;4483;48.622;9.230;2023-08-08T05:30:01;98008.22;;;14.24;100.00
8894;BME280;4483;48.622;9.230;2023-08-08T05:32:28;97997.88;;;14.40;100.00
8894;BME280;4483;48.622;9.230;2023-08-08T05:34:55;97997.59;;;14.61;100.00
8894;BME280;4483;48.622;9.230;2023-08-08T05:37:22;97998.25;;;14.80;100.00
8894;BME280;4483;48.622;9.230;2023-08-08T05:39:49;98000.75;;;14.97;98.45
8894;BME280;4483;48.622;9.230;2023-08-08T05:42:19;97997.13;;;15.16;98.27
8894;BME280;4483;48.622;9.230;2023-08-08T05:44:45;97992.19;;;15.27;96.13
8894;BME280;4483;48.622;9.230;2023-08-08T05:47:12;97996.16;;;15.48;96.35
8894;BME280;4483;48.622;9.230;2023-08-08T05:49:39;97991.13;;;15.74;93.77
8894;BME280;4483;48.622;9.230;2023-08-08T05:52:07;97996.84;;;15.95;91.03
8894;BME280;4483;48.622;9.230;2023-08-08T05:54:33;98003.69;;;15.96;89.72
8894;BME280;4483;48.622;9.230;2023-08-08T05:57:01;97999.03;;;15.87;88.31
8894;BME280;4483;48.622;9.230;2023-08-08T05:59:29;98013.69;;;15.74;88.90
8894;BME280;4483;48.622;9.230;2023-08-08T06:01:56;98015.97;;;15.64;88.34
8894;BME280;4483;48.622;9.230;2023-08-08T06:04:25;98006.97;;;15.70;87.69
8894;BME280;4483;48.622;9.230;2023-08-08T06:06:52;98018.97;;;15.86;88.30
8894;BME280;4483;48.622;9.230;2023-08-08T06:09:19;98003.25;;;16.18;88.12
8894;BME280;4483;48.622;9.230;2023-08-08T06:11:46;98007.16;;;16.53;86.94
8894;BME280;4483;48.622;9.230;2023-08-08T06:14:13;98003.47;;;16.83;85.80
8894;BME280;4483;48.622;9.230;2023-08-08T06:16:41;98004.88;;;17.16;85.08
8894;BME280;4483;48.622;9.230;2023-08-08T06:19:08;98008.94;;;17.46;84.04
8894;BME280;4483;48.622;9.230;2023-08-08T06:21:35;98000.69;;;17.79;82.85
8894;BME280;4483;48.622;9.230;2023-08-08T06:24:02;97996.22;;;18.06;80.26
8894;BME280;4483;48.622;9.230;2023-08-08T06:26:29;98000.28;;;18.23;78.89
8894;BME280;4483;48.622;9.230;2023-08-08T06:28:55;97999.78;;;18.43;78.57
8894;BME280;4483;48.622;9.230;2023-08-08T06:31:22;97998.56;;;18.72;77.09
8894;BME280;4483;48.622;9.230;2023-08-08T06:33:50;97988.91;;;18.85;76.18
8894;BME280;4483;48.622;9.230;2023-08-08T06:36:17;97997.22;;;19.02;73.98
8894;BME280;4483;48.622;9.230;2023-08-08T06:38:44;97991.53;;;19.08;73.81
8894;BME280;4483;48.622;9.230;2023-08-08T06:41:10;97989.84;;;19.20;71.79
8894;BME280;4483;48.622;9.230;2023-08-08T06:43:38;97984.91;;;19.28;70.02
8894;BME280;4483;48.622;9.230;2023-08-08T06:46:05;97991.56;;;19.32;68.61
8894;BME280;4483;48.622;9.230;2023-08-08T06:48:32;97991.00;;;19.40;68.38
8894;BME280;4483;48.622;9.230;2023-08-08T06:51:02;97985.00;;;19.50;66.18
8894;BME280;4483;48.622;9.230;2023-08-08T06:53:30;97985.38;;;19.57;66.01
8894;BME280;4483;48.622;9.230;2023-08-08T06:55:56;97983.00;;;19.54;65.01
8894;BME280;4483;48.622;9.230;2023-08-08T06:58:23;97982.00;;;19.44;65.34
8894;BME280;4483;48.622;9.230;2023-08-08T07:00:50;97984.00;;;19.40;65.62
8894;BME280;4483;48.622;9.230;2023-08-08T07:03:17;97995.44;;;19.39;65.86
8894;BME280;4483;48.622;9.230;2023-08-08T07:05:44;97988.31;;;19.52;66.13
8894;BME280;4483;48.622;9.230;2023-08-08T07:08:13;97992.81;;;19.74;65.63
8894;BME280;4483;48.622;9.230;2023-08-08T07:10:40;97983.81;;;20.00;64.57
8894;BME280;4483;48.622;9.230;2023-08-08T07:13:07;97981.09;;;20.13;63.56
8894;BME280;4483;48.622;9.230;2023-08-08T07:15:35;97975.09;;;20.23;62.77
8894;BME280;4483;48.622;9.230;2023-08-08T07:18:03;97987.31;;;20.45;62.27
8894;BME280;4483;48.622;9.230;2023-08-08T07:20:30;97982.44;;;20.62;61.83
8894;BME280;4483;48.622;9.230;2023-08-08T07:22:56;97976.81;;;20.78;60.83
8894;BME280;4483;48.622;9.230;2023-08-08T07:25:26;97978.22;;;20.93;61.15
8894;BME280;4483;48.622;9.230;2023-08-08T07:27:54;97982.59;;;21.15;60.75
8894;BME280;4483;48.622;9.230;2023-08-08T07:30:20;97982.47;;;21.16;59.82
8894;BME280;4483;48.622;9.230;2023-08-08T07:32:50;97978.22;;;21.36;60.21
8894;BME280;4483;48.622;9.230;2023-08-08T07:35:18;97966.03;;;21.46;59.01
8894;BME280;4483;48.622;9.230;2023-08-08T07:37:45;97980.25;;;21.64;58.53
8894;BME280;4483;48.622;9.230;2023-08-08T07:40:15;97969.69;;;21.75;58.24
8894;BME280;4483;48.622;9.230;2023-08-08T07:42:44;97967.56;;;21.80;56.97
8894;BME280;4483;48.622;9.230;2023-08-08T07:45:13;97963.91;;;21.92;56.86
8894;BME280;4483;48.622;9.230;2023-08-08T07:47:40;97955.28;;;22.11;56.39
8894;BME280;4483;48.622;9.230;2023-08-08T07:50:11;97960.50;;;22.31;55.85
8894;BME280;4483;48.622;9.230;2023-08-08T07:52:40;97965.31;;;22.56;54.87
8894;BME280;4483;48.622;9.230;2023-08-08T07:55:09;97962.13;;;22.92;54.94
8894;BME280;4483;48.622;9.230;2023-08-08T07:57:40;97960.75;;;23.08;54.21
8894;BME280;4483;48.622;9.230;2023-08-08T08:00:11;97955.91;;;23.13;53.50
8894;BME280;4483;48.622;9.230;2023-08-08T08:02:38;97959.91;;;23.17;53.17
8894;BME280;4483;48.622;9.230;2023-08-08T08:05:05;97957.00;;;23.10;52.68
8894;BME280;4483;48.622;9.230;2023-08-08T08:07:34;97955.06;;;23.03;52.68
8894;BME280;4483;48.622;9.230;2023-08-08T08:10:02;97948.28;;;23.10;53.38
8894;BME280;4483;48.622;9.230;2023-08-08T08:12:29;97941.16;;;23.31;52.97
8894;BME280;4483;48.622;9.230;2023-08-08T08:14:59;97946.38;;;23.50;52.39
8894;BME280;4483;48.622;9.230;2023-08-08T08:17:34;97945.28;;;23.43;51.99
8894;BME280;4483;48.622;9.230;2023-08-08T08:20:01;97946.91;;;23.15;51.88
8894;BME280;4483;48.622;9.230;2023-08-08T08:22:32;97948.31;;;23.00;52.78
8894;BME280;4483;48.622;9.230;2023-08-08T08:25:00;97956.31;;;22.89;53.02
8894;BME280;4483;48.622;9.230;2023-08-08T08:27:28;97956.28;;;22.79;52.33
8894;BME280;4483;48.622;9.230;2023-08-08T08:29:56;97955.72;;;22.85;52.12
8894;BME280;4483;48.622;9.230;2023-08-08T08:32:23;97956.56;;;22.86;51.95
8894;BME280;4483;48.622;9.230;2023-08-08T08:34:52;97953.22;;;22.84;51.23
8894;BME280;4483;48.622;9.230;2023-08-08T08:37:19;97944.69;;;22.91;51.21
8894;BME280;4483;48.622;9.230;2023-08-08T08:39:47;97941.41;;;23.18;51.49
8894;BME280;4483;48.622;9.230;2023-08-08T08:42:13;97948.06;;;23.32;51.42
8894;BME280;4483;48.622;9.230;2023-08-08T08:44:42;97935.06;;;23.40;51.51
8894;BME280;4483;48.622;9.230;2023-08-08T08:47:12;97934.47;;;23.65;51.52
8894;BME280;4483;48.622;9.230;2023-08-08T08:49:39;97933.28;;;23.96;50.68
8894;BME280;4483;48.622;9.230;2023-08-08T08:52:09;97938.03;;;23.83;50.45
8894;BME280;4483;48.622;9.230;2023-08-08T08:54:37;97939.97;;;23.90;50.01
8894;BME280;4483;48.622;9.230;2023-08-08T08:57:04;97939.69;;;24.03;49.61
8894;BME280;4483;48.622;9.230;2023-08-08T08:59:31;97929.97;;;24.13;49.10
8894;BME280;4483;48.622;9.230;2023-08-08T09:01:59;97933.78;;;24.28;48.52
8894;BME280;4483;48.622;9.230;2023-08-08T09:04:29;97933.72;;;24.38;48.35
8894;BME280;4483;48.622;9.230;2023-08-08T09:06:57;97939.00;;;24.38;47.92
8894;BME280;4483;48.622;9.230;2023-08-08T09:09:26;97937.41;;;24.18;47.60
8894;BME280;4483;48.622;9.230;2023-08-08T09:11:54;97929.38;;;24.19;47.41
8894;BME280;4483;48.622;9.230;2023-08-08T09:14:26;97928.94;;;24.51;48.38
8894;BME280;4483;48.622;9.230;2023-08-08T09:16:57;97920.16;;;24.87;46.78
8894;BME280;4483;48.622;9.230;2023-08-08T09:19:24;97926.66;;;24.92;46.54
8894;BME280;4483;48.622;9.230;2023-08-08T09:21:52;97921.59;;;24.81;46.46
8894;BME280;4483;48.622;9.230;2023-08-08T09:24:19;97930.38;;;25.00;46.15
8894;BME280;4483;48.622;9.230;2023-08-08T09:26:48;97912.44;;;25.21;45.71
8894;BME280;4483;48.622;9.230;2023-08-08T09:29:15;97916.50;;;25.50;46.11
8894;BME280;4483;48.622;9.230;2023-08-08T09:31:41;97910.50;;;25.83;44.77
8894;BME280;4483;48.622;9.230;2023-08-08T09:34:08;97905.69;;;26.05;43.81
8894;BME280;4483;48.622;9.230;2023-08-08T09:36:35;97915.63;;;26.11;43.54
8894;BME280;4483;48.622;9.230;2023-08-08T09:39:03;97914.06;;;26.34;43.34
8894;BME280;4483;48.622;9.230;2023-08-08T09:41:31;97903.06;;;26.46;42.71
8894;BME280;4483;48.622;9.230;2023-08-08T09:43:59;97899.63;;;26.54;41.71
8894;BME280;4483;48.622;9.230;2023-08-08T09:46:30;97910.66;;;26.41;41.80
8894;BME280;4483;48.622;9.230;2023-08-08T09:48:57;97915.09;;;26.33;41.38
8894;BME280;4483;48.622;9.230;2023-08-08T09:51:25;97904.91;;;26.12;41.44
8894;BME280;4483;48.622;9.230;2023-08-08T09:53:52;97893.75;;;26.26;41.66
8894;BME280;4483;48.622;9.230;2023-08-08T09:56:21;97907.53;;;26.46;41.01
8894;BME280;4483;48.622;9.230;2023-08-08T09:58:49;97905.84;;;26.78;40.41
8894;BME280;4483;48.622;9.230;2023-08-08T10:01:20;97900.75;;;26.85;40.04
8894;BME280;4483;48.622;9.230;2023-08-08T10:03:48;97897.31;;;27.01;39.87
8894;BME280;4483;48.622;9.230;2023-08-08T10:06:19;97888.09;;;27.21;39.49
8894;BME280;4483;48.622;9.230;2023-08-08T10:08:46;97889.06;;;27.28;39.45
8894;BME280;4483;48.622;9.230;2023-08-08T10:11:13;97887.75;;;27.40;39.50
8894;BME280;4483;48.622;9.230;2023-08-08T10:13:48;97891.31;;;26.74;38.94
8894;BME280;4483;48.622;9.230;2023-08-08T10:16:16;97893.28;;;26.31;39.80
8894;BME280;4483;48.622;9.230;2023-08-08T10:18:56;97893.78;;;26.34;40.12
8894;BME280;4483;48.622;9.230;2023-08-08T10:21:26;97889.72;;;26.56;40.34
8894;BME280;4483;48.622;9.230;2023-08-08T10:24:04;97890.66;;;26.89;40.10
8894;BME280;4483;48.622;9.230;2023-08-08T10:26:32;97893.50;;;26.95;39.85
8894;BME280;4483;48.622;9.230;2023-08-08T10:29:00;97878.19;;;27.31;39.07
8894;BME280;4483;48.622;9.230;2023-08-08T10:31:33;97874.41;;;27.41;38.06
8894;BME280;4483;48.622;9.230;2023-08-08T10:34:05;97888.34;;;26.86;38.06
8894;BME280;4483;48.622;9.230;2023-08-08T10:36:48;97876.09;;;26.01;38.38
8894;BME280;4483;48.622;9.230;2023-08-08T10:39:16;97880.97;;;25.88;40.06
8894;BME280;4483;48.622;9.230;2023-08-08T10:41:45;97882.88;;;26.04;39.95
8894;BME280;4483;48.622;9.230;2023-08-08T10:44:13;97880.78;;;26.07;39.89
8894;BME280;4483;48.622;9.230;2023-08-08T10:46:41;97880.53;;;26.26;39.87
8894;BME280;4483;48.622;9.230;2023-08-08T10:49:11;97865.56;;;26.85;39.40
8894;BME280;4483;48.622;9.230;2023-08-08T10:51:41;97862.13;;;27.08;39.20
8894;BME280;4483;48.622;9.230;2023-08-08T10:54:13;97860.00;;;27.52;38.15
8894;BME280;4483;48.622;9.230;2023-08-08T10:56:40;97869.16;;;28.04;36.61
8894;BME280;4483;48.622;9.230;2023-08-08T10:59:14;97861.44;;;28.33;35.40
8894;BME280;4483;48.622;9.230;2023-08-08T11:01:45;97852.63;;;28.71;35.37
8894;BME280;4483;48.622;9.230;2023-08-08T11:04:15;97846.47;;;29.02;34.83
8894;BME280;4483;48.622;9.230;2023-08-08T11:06:42;97851.13;;;29.00;33.88
8894;BME280;4483;48.622;9.230;2023-08-08T11:09:09;97856.03;;;28.88;34.04
8894;BME280;4483;48.622;9.230;2023-08-08T11:11:37;97853.66;;;28.70;34.16
8894;BME280;4483;48.622;9.230;2023-08-08T11:14:11;97858.19;;;28.15;34.37
8894;BME280;4483;48.622;9.230;2023-08-08T11:16:38;97855.84;;;28.28;34.89
8894;BME280;4483;48.622;9.230;2023-08-08T11:19:05;97847.94;;;28.51;34.69
8894;BME280;4483;48.622;9.230;2023-08-08T11:21:35;97846.94;;;28.83;34.67
8894;BME280;4483;48.622;9.230;2023-08-08T11:24:04;97842.69;;;28.73;33.45
8894;BME280;4483;48.622;9.230;2023-08-08T11:26:31;97846.66;;;29.00;34.39
8894;BME280;4483;48.622;9.230;2023-08-08T11:28:58;97857.22;;;29.31;33.17
8894;BME280;4483;48.622;9.230;2023-08-08T11:31:26;97850.16;;;29.23;32.62
8894;BME280;4483;48.622;9.230;2023-08-08T11:33:53;97858.75;;;29.48;32.87
8894;BME280;4483;48.622;9.230;2023-08-08T11:36:21;97840.19;;;29.62;32.59
8894;BME280;4483;48.622;9.230;2023-08-08T11:38:50;97839.38;;;29.39;33.37
8894;BME280;4483;48.622;9.230;2023-08-08T11:41:20;97845.91;;;29.14;33.10
8894;BME280;4483;48.622;9.230;2023-08-08T11:43:48;97839.63;;;28.85;33.12
8894;BME280;4483;48.622;9.230;2023-08-08T11:46:16;97846.09;;;29.13;33.50
8894;BME280;4483;48.622;9.230;2023-08-08T11:48:46;97843.38;;;29.58;33.03
8894;BME280;4483;48.622;9.230;2023-08-08T11:51:14;97831.25;;;29.93;31.43
8894;BME280;4483;48.622;9.230;2023-08-08T11:53:48;97830.31;;;29.34;30.15
8894;BME280;4483;48.622;9.230;2023-08-08T11:56:16;97835.34;;;28.84;31.32
8894;BME280;4483;48.622;9.230;2023-08-08T11:58:43;97837.09;;;28.68;32.13
8894;BME280;4483;48.622;9.230;2023-08-08T12:01:10;97839.13;;;28.89;32.40
8894;BME280;4483;48.622;9.230;2023-08-08T12:03:39;97825.34;;;29.16;32.61
8894;BME280;4483;48.622;9.230;2023-08-08T12:06:11;97837.59;;;29.54;32.11
8894;BME280;4483;48.622;9.230;2023-08-08T12:08:39;97827.31;;;29.74;31.30
8894;BME280;4483;48.622;9.230;2023-08-08T12:11:08;97826.69;;;30.01;31.00
8894;BME280;4483;48.622;9.230;2023-08-08T12:13:37;97839.41;;;29.91;30.41
8894;BME280;4483;48.622;9.230;2023-08-08T12:16:05;97823.41;;;29.62;30.39
8894;BME280;4483;48.622;9.230;2023-08-08T12:18:32;97828.78;;;29.54;30.79
8894;BME280;4483;48.622;9.230;2023-08-08T12:21:00;97824.50;;;29.53;30.80
8894;BME280;4483;48.622;9.230;2023-08-08T12:23:26;97820.13;;;29.60;30.81
8894;BME280;4483;48.622;9.230;2023-08-08T12:25:53;97820.72;;;29.33;30.66
8894;BME280;4483;48.622;9.230;2023-08-08T12:28:20;97812.19;;;29.00;30.52
8894;BME280;4483;48.622;9.230;2023-08-08T12:30:48;97819.88;;;28.64;31.48
8894;BME280;4483;48.622;9.230;2023-08-08T12:33:14;97814.75;;;28.32;31.50
8894;BME280;4483;48.622;9.230;2023-08-08T12:35:41;97821.38;;;28.28;31.68
8894;BME280;4483;48.622;9.230;2023-08-08T12:38:08;97802.63;;;28.68;31.73
8894;BME280;4483;48.622;9.230;2023-08-08T12:40:35;97815.81;;;28.99;31.34
8894;BME280;4483;48.622;9.230;2023-08-08T12:43:02;97805.13;;;29.15;30.68
8894;BME280;4483;48.622;9.230;2023-08-08T12:45:29;97802.53;;;29.44;30.36
8894;BME280;4483;48.622;9.230;2023-08-08T12:47:57;97798.19;;;29.81;30.61
8894;BME280;4483;48.622;9.230;2023-08-08T12:50:24;97812.56;;;30.01;30.60
8894;BME280;4483;48.622;9.230;2023-08-08T12:52:50;97798.66;;;29.69;30.03
8894;BME280;4483;48.622;9.230;2023-08-08T12:55:17;97790.72;;;29.10;30.14
8894;BME280;4483;48.622;9.230;2023-08-08T12:57:46;97801.03;;;28.51;31.13
8894;BME280;4483;48.622;9.230;2023-08-08T13:00:14;97790.88;;;28.40;32.31
8894;BME280;4483;48.622;9.230;2023-08-08T13:02:41;97797.44;;;28.52;32.32
8894;BME280;4483;48.622;9.230;2023-08-08T13:05:09;97788.97;;;28.80;32.44
8894;BME280;4483;48.622;9.230;2023-08-08T13:07:36;97786.78;;;29.06;31.90
8894;BME280;4483;48.622;9.230;2023-08-08T13:10:03;97783.75;;;29.31;31.53
8894;BME280;4483;48.622;9.230;2023-08-08T13:12:30;97790.72;;;29.47;31.25
8894;BME280;4483;48.622;9.230;2023-08-08T13:14:57;97785.03;;;29.35;31.38
8894;BME280;4483;48.622;9.230;2023-08-08T13:17:23;97761.19;;;28.90;30.80
8894;BME280;4483;48.622;9.230;2023-08-08T13:19:50;97776.50;;;28.35;31.90